createdAt,value
2023-04-25T00:00:10.327Z,68.72
2023-04-25T00:02:56.971Z,68.60
2023-04-25T00:05:40.293Z,68.71
2023-04-25T00:08:24.754Z,68.70
2023-04-25T00:11:07.556Z,69.11
2023-04-25T00:13:50.940Z,68.95
2023-04-25T00:16:35.840Z,68.95
2023-04-25T00:19:18.783Z,68.94
2023-04-25T00:22:01.687Z,69.14
2023-04-25T00:24:46.232Z,69.08
2023-04-25T00:27:29.016Z,69.03
2023-04-25T00:30:13.123Z,68.92
2023-04-25T00:32:56.312Z,68.75
2023-04-25T00:35:40.321Z,68.70
2023-04-25T00:38:23.393Z,68.78
2023-04-25T00:41:09.501Z,68.69
2023-04-25T00:43:53.433Z,68.88
2023-04-25T00:46:37.736Z,69.12
2023-04-25T00:49:20.669Z,69.05
2023-04-25T00:52:03.506Z,69.11
2023-04-25T00:54:46.322Z,69.16
2023-04-25T00:57:30.545Z,68.95
2023-04-25T01:00:14.818Z,69.54
2023-04-25T01:02:57.851Z,69.66
2023-04-25T01:05:42.594Z,69.59
2023-04-25T01:08:26.737Z,69.33
2023-04-25T01:11:10.138Z,69.82
2023-04-25T01:13:54.373Z,69.97
2023-04-25T01:16:37.843Z,69.86
2023-04-25T01:19:21.876Z,70.04
2023-04-25T01:22:06.719Z,70.21
2023-04-25T01:24:49.682Z,69.95
2023-04-25T01:27:33.830Z,69.99
2023-04-25T01:30:17.757Z,69.80
2023-04-25T01:33:02.420Z,69.95
2023-04-25T01:35:45.672Z,69.51
2023-04-25T01:38:30.001Z,69.60
2023-04-25T01:41:12.912Z,69.83
2023-04-25T01:43:56.146Z,70.08
2023-04-25T01:46:39.643Z,70.03
2023-04-25T01:49:22.587Z,69.90
2023-04-25T01:52:06.241Z,69.83
2023-04-25T01:54:51.835Z,69.98
2023-04-25T01:57:34.790Z,70.04
2023-04-25T02:00:18.223Z,70.40
2023-04-25T02:03:01.135Z,70.45
2023-04-25T02:05:48.120Z,70.58
2023-04-25T02:08:31.289Z,70.91
2023-04-25T02:11:15.836Z,70.82
2023-04-25T02:14:04.519Z,70.63
2023-04-25T02:16:55.103Z,70.64
2023-04-25T02:19:38.071Z,70.33
2023-04-25T02:22:20.820Z,70.62
2023-04-25T02:25:05.834Z,70.57
2023-04-25T02:27:51.432Z,70.32
2023-04-25T02:30:34.329Z,70.21
2023-04-25T02:33:17.970Z,70.14
2023-04-25T02:36:00.837Z,70.37
2023-04-25T02:38:43.653Z,70.32
2023-04-25T02:41:26.424Z,70.17
2023-04-25T02:44:12.332Z,70.54
2023-04-25T02:46:55.247Z,70.31
2023-04-25T02:49:40.212Z,70.46
2023-04-25T02:52:23.679Z,70.45
2023-04-25T02:55:14.935Z,70.37
2023-04-25T02:57:58.809Z,70.37
2023-04-25T03:00:57.907Z,70.40
2023-04-25T03:03:41.237Z,70.45
2023-04-25T03:06:24.141Z,70.49
2023-04-25T03:09:07.345Z,70.47
2023-04-25T03:11:50.319Z,70.71
2023-04-25T03:14:35.009Z,70.61
2023-04-25T03:17:19.112Z,70.96
2023-04-25T03:20:02.063Z,71.42
2023-04-25T03:22:46.042Z,70.90
2023-04-25T03:25:28.812Z,70.80
2023-04-25T03:28:11.653Z,70.77
2023-04-25T03:30:55.166Z,70.81
2023-04-25T03:33:39.326Z,70.79
2023-04-25T03:36:22.116Z,70.76
2023-04-25T03:39:05.055Z,70.87
2023-04-25T03:41:48.617Z,71.12
2023-04-25T03:44:33.120Z,71.17
2023-04-25T03:47:17.356Z,70.92
2023-04-25T03:50:03.250Z,70.97
2023-04-25T03:52:46.414Z,70.93
2023-04-25T03:55:30.133Z,71.33
2023-04-25T03:58:13.195Z,71.61
2023-04-25T04:00:56.190Z,71.49
2023-04-25T04:03:39.918Z,71.58
2023-04-25T04:06:24.776Z,71.50
2023-04-25T04:09:13.917Z,71.66
2023-04-25T04:11:59.356Z,71.75
2023-04-25T04:14:42.560Z,71.81
2023-04-25T04:17:26.378Z,71.78
2023-04-25T04:20:10.731Z,71.96
2023-04-25T04:22:56.692Z,71.76
2023-04-25T04:25:41.700Z,71.90
2023-04-25T04:28:38.960Z,71.77
2023-04-25T04:31:31.092Z,71.88
2023-04-25T04:34:13.983Z,72.08
2023-04-25T04:36:57.478Z,71.83
2023-04-25T04:39:42.023Z,71.94
2023-04-25T04:42:39.181Z,71.98
2023-04-25T04:45:32.492Z,71.96
2023-04-25T04:48:35.200Z,72.11
2023-04-25T04:51:41.737Z,72.09
2023-04-25T04:54:48.732Z,72.08
2023-04-25T04:58:03.761Z,72.18
2023-04-25T05:00:58.208Z,72.40
2023-04-25T05:04:10.760Z,72.72
2023-04-25T05:07:05.053Z,72.59
2023-04-25T05:10:09.487Z,72.54
2023-04-25T05:13:12.479Z,72.64
2023-04-25T05:16:14.420Z,72.97
2023-04-25T05:19:06.082Z,72.86
2023-04-25T05:21:59.444Z,72.96
2023-04-25T05:24:55.836Z,73.45
2023-04-25T05:27:53.788Z,73.02
2023-04-25T05:31:06.653Z,72.91
2023-04-25T05:34:05.902Z,73.05
2023-04-25T05:37:27.542Z,73.33
2023-04-25T05:40:21.167Z,73.18
2023-04-25T05:43:17.978Z,73.17
2023-04-25T05:46:10.785Z,72.91
2023-04-25T05:49:08.371Z,73.11
2023-04-25T05:52:17.202Z,73.02
2023-04-25T05:55:04.768Z,72.75
2023-04-25T05:57:50.152Z,72.91
2023-04-25T06:00:35.842Z,72.66
2023-04-25T06:03:20.699Z,72.75
2023-04-25T06:06:06.173Z,72.70
2023-04-25T06:08:49.723Z,72.74
2023-04-25T06:11:32.896Z,72.82
2023-04-25T06:14:16.888Z,73.01
2023-04-25T06:17:09.500Z,72.78
2023-04-25T06:19:52.330Z,72.75
2023-04-25T06:22:35.346Z,72.68
2023-04-25T06:25:19.014Z,72.72
2023-04-25T06:28:01.836Z,72.60
2023-04-25T06:30:44.736Z,72.74
2023-04-25T06:33:32.405Z,72.66
2023-04-25T06:36:16.024Z,72.65
2023-04-25T06:39:00.368Z,72.98
2023-04-25T06:41:43.169Z,72.77
2023-04-25T06:44:45.928Z,72.70
2023-04-25T06:47:31.937Z,72.41
2023-04-25T06:50:17.911Z,72.73
2023-04-25T06:53:02.479Z,72.55
2023-04-25T06:55:46.509Z,72.69
2023-04-25T06:58:37.833Z,72.25
2023-04-25T07:01:41.237Z,71.90
2023-04-25T07:04:32.854Z,71.82
2023-04-25T07:07:18.223Z,71.34
2023-04-25T07:10:09.520Z,71.39
2023-04-25T07:12:53.413Z,71.16
2023-04-25T07:15:36.841Z,71.17
2023-04-25T07:18:19.910Z,72.07
2023-04-25T07:21:03.428Z,72.01
2023-04-25T07:23:49.857Z,72.06
2023-04-25T07:26:36.929Z,71.92
2023-04-25T07:29:38.384Z,71.86
2023-04-25T07:32:21.566Z,71.94
2023-04-25T07:35:05.004Z,72.26
2023-04-25T07:37:47.802Z,71.51
2023-04-25T07:40:36.374Z,70.82
2023-04-25T07:43:23.141Z,70.63
2023-04-25T07:46:13.661Z,71.07
2023-04-25T07:48:56.610Z,71.51
2023-04-25T07:51:39.796Z,71.47
2023-04-25T07:54:26.691Z,71.09
2023-04-25T08:01:31.707Z,69.51
2023-04-25T08:04:19.078Z,68.80
2023-04-25T08:07:10.674Z,68.60
2023-04-25T08:10:05.673Z,67.54
2023-04-25T08:12:50.313Z,67.55
2023-04-25T08:15:33.299Z,67.78
2023-04-25T08:18:17.993Z,67.68
2023-04-25T08:21:02.351Z,66.50
2023-04-25T08:23:45.391Z,65.34
2023-04-25T08:26:32.136Z,65.68
2023-04-25T08:29:16.129Z,65.53
2023-04-25T08:31:59.802Z,65.02
2023-04-25T08:34:44.975Z,65.43
2023-04-25T08:37:27.935Z,65.89
2023-04-25T08:40:17.390Z,65.70
2023-04-25T08:43:05.457Z,66.18
2023-04-25T08:45:49.342Z,66.57
2023-04-25T08:48:46.619Z,65.93
2023-04-25T08:51:33.936Z,66.29
2023-04-25T08:54:34.286Z,66.12
2023-04-25T08:57:22.581Z,63.43
2023-04-25T09:00:09.222Z,63.49
2023-04-25T09:02:55.017Z,62.80
2023-04-25T09:05:39.719Z,63.03
2023-04-25T09:08:23.925Z,62.84
2023-04-25T09:11:06.885Z,62.94
2023-04-25T09:13:50.132Z,63.17
2023-04-25T09:17:00.560Z,63.26
2023-04-25T09:19:52.951Z,62.29
2023-04-25T09:22:47.937Z,60.87
2023-04-25T09:25:37.247Z,60.25
2023-04-25T09:28:26.891Z,60.11
2023-04-25T09:31:12.120Z,61.29
2023-04-25T09:34:03.059Z,59.67
2023-04-25T09:36:56.533Z,59.02
2023-04-25T09:40:09.081Z,59.29
2023-04-25T09:43:11.301Z,59.72
2023-04-25T09:45:59.256Z,59.69
2023-04-25T09:48:50.637Z,59.37
2023-04-25T09:51:37.821Z,59.79
2023-04-25T09:54:23.413Z,59.73
2023-04-25T09:57:14.229Z,59.64
2023-04-25T09:59:59.407Z,59.76
2023-04-25T10:02:49.531Z,60.94
2023-04-25T10:06:11.383Z,61.17
2023-04-25T10:08:56.849Z,62.04
2023-04-25T10:11:41.553Z,61.98
2023-04-25T10:14:24.869Z,63.37
2023-04-25T10:17:12.009Z,62.86
2023-04-25T10:19:56.228Z,63.19
2023-04-25T10:22:41.596Z,63.58
2023-04-25T10:25:25.715Z,63.96
2023-04-25T10:28:08.548Z,64.04
2023-04-25T10:31:01.345Z,64.52
2023-04-25T10:33:45.787Z,64.39
2023-04-25T10:36:33.922Z,64.88
2023-04-25T10:39:24.578Z,65.15
2023-04-25T10:42:08.726Z,65.43
2023-04-25T10:45:04.994Z,65.78
2023-04-25T10:47:48.283Z,65.66
2023-04-25T10:50:41.432Z,65.22
2023-04-25T10:53:26.880Z,65.27
2023-04-25T10:56:14.540Z,65.35
2023-04-25T10:59:08.576Z,65.65
2023-04-25T11:01:55.709Z,65.71
2023-04-25T11:04:40.011Z,66.08
2023-04-25T11:07:36.712Z,66.04
2023-04-25T11:10:20.163Z,64.56
2023-04-25T11:13:03.347Z,64.34
2023-04-25T11:15:47.773Z,64.70
2023-04-25T11:18:33.928Z,63.92
2023-04-25T11:21:16.774Z,64.78
2023-04-25T11:24:01.791Z,64.90
2023-04-25T11:26:45.118Z,65.11
2023-04-25T11:29:29.074Z,65.39
2023-04-25T11:32:12.055Z,65.84
2023-04-25T11:34:55.113Z,65.78
2023-04-25T11:37:38.474Z,66.01
2023-04-25T11:40:22.735Z,65.73
2023-04-25T11:43:05.881Z,65.33
2023-04-25T11:45:51.616Z,65.69
2023-04-25T11:48:40.009Z,65.37
2023-04-25T11:51:22.980Z,65.46
2023-04-25T11:54:06.935Z,65.77
2023-04-25T11:56:51.216Z,65.93
2023-04-25T11:59:34.205Z,66.12
2023-04-25T12:02:27.712Z,66.75
2023-04-25T12:05:29.395Z,66.55
2023-04-25T12:08:15.414Z,66.69
2023-04-25T12:10:58.271Z,68.69
2023-04-25T12:13:47.017Z,70.33
2023-04-25T12:16:30.025Z,70.85
2023-04-25T12:19:16.261Z,69.66
2023-04-25T12:21:59.629Z,69.25
2023-04-25T12:24:42.607Z,68.76
2023-04-25T12:27:28.453Z,67.38
2023-04-25T12:30:13.346Z,67.62
2023-04-25T12:32:56.340Z,68.03
2023-04-25T12:35:39.224Z,65.57
2023-04-25T12:38:31.117Z,65.07
2023-04-25T12:41:14.006Z,64.44
2023-04-25T12:43:57.218Z,63.35
2023-04-25T12:46:42.871Z,62.92
2023-04-25T12:49:26.472Z,61.95
2023-04-25T12:52:09.515Z,62.74
2023-04-25T12:54:52.304Z,62.67
2023-04-25T12:57:36.012Z,61.48
2023-04-25T13:00:20.916Z,60.86
2023-04-25T13:03:05.746Z,60.05
2023-04-25T13:05:49.014Z,60.01
2023-04-25T13:08:32.117Z,59.48
2023-04-25T13:11:17.030Z,59.59
2023-04-25T13:13:59.828Z,59.33
2023-04-25T13:16:43.058Z,59.42
2023-04-25T13:19:27.292Z,60.63
2023-04-25T13:22:10.201Z,59.51
2023-04-25T13:24:53.049Z,59.15
2023-04-25T13:27:37.436Z,57.30
2023-04-25T13:30:20.321Z,56.57
2023-04-25T13:33:04.431Z,57.30
2023-04-25T13:35:54.669Z,57.57
2023-04-25T13:38:38.030Z,57.74
2023-04-25T13:41:20.856Z,57.86
2023-04-25T13:44:03.697Z,56.64
2023-04-25T13:46:47.858Z,56.06
2023-04-25T13:49:31.244Z,56.55
2023-04-25T13:52:15.602Z,56.16
2023-04-25T13:54:59.044Z,55.53
2023-04-25T13:57:41.867Z,55.54
2023-04-25T14:00:25.188Z,55.67
2023-04-25T14:03:09.533Z,55.57
2023-04-25T14:05:52.783Z,55.32
2023-04-25T14:08:37.190Z,54.39
2023-04-25T14:11:20.096Z,52.35
2023-04-25T14:14:02.953Z,52.93
2023-04-25T14:16:45.872Z,53.05
2023-04-25T14:19:29.772Z,51.16
2023-04-25T14:22:12.755Z,52.29
2023-04-25T14:24:57.033Z,50.63
2023-04-25T14:27:43.152Z,50.36
2023-04-25T14:30:26.327Z,50.02
2023-04-25T14:33:09.275Z,50.59
2023-04-25T14:35:52.147Z,50.41
2023-04-25T14:38:35.052Z,49.93
2023-04-25T14:41:19.286Z,49.85
2023-04-25T14:44:02.358Z,51.15
2023-04-25T14:46:45.887Z,51.36
2023-04-25T14:49:29.224Z,51.87
2023-04-25T14:52:12.038Z,52.25
2023-04-25T14:54:55.059Z,52.37
2023-04-25T14:57:40.334Z,52.19
2023-04-25T15:00:24.029Z,52.37
2023-04-25T15:03:08.579Z,52.32
2023-04-25T15:05:51.629Z,52.82
2023-04-25T15:08:34.832Z,52.46
2023-04-25T15:11:17.879Z,52.25
2023-04-25T15:14:02.146Z,52.23
2023-04-25T15:16:45.325Z,52.39
2023-04-25T15:19:28.277Z,52.91
2023-04-25T15:22:11.883Z,53.50
2023-04-25T15:24:55.566Z,53.16
2023-04-25T15:27:43.105Z,53.21
2023-04-25T15:30:27.383Z,54.04
2023-04-25T15:33:10.268Z,54.39
2023-04-25T15:35:53.475Z,54.72
2023-04-25T15:38:36.367Z,55.28
2023-04-25T15:41:19.493Z,55.54
2023-04-25T15:44:02.644Z,56.30
2023-04-25T15:46:46.844Z,56.39
2023-04-25T15:49:29.764Z,56.68
2023-04-25T15:52:12.816Z,56.87
2023-04-25T15:54:55.788Z,56.76
2023-04-25T15:57:38.640Z,56.93
2023-04-25T16:00:22.535Z,57.25
2023-04-25T16:03:07.691Z,57.31
2023-04-25T16:05:50.712Z,57.25
2023-04-25T16:08:35.755Z,57.65
2023-04-25T16:11:19.505Z,56.96
2023-04-25T16:14:02.387Z,57.26
2023-04-25T16:16:45.301Z,57.43
2023-04-25T16:19:29.518Z,57.52
2023-04-25T16:22:16.282Z,58.38
2023-04-25T16:24:59.168Z,58.22
2023-04-25T16:27:42.069Z,58.86
2023-04-25T16:30:25.165Z,58.31
2023-04-25T16:33:08.130Z,58.26
2023-04-25T16:35:52.902Z,58.33
2023-04-25T16:38:36.108Z,58.67
2023-04-25T16:41:19.022Z,59.31
2023-04-25T16:44:01.843Z,59.41
2023-04-25T16:46:44.991Z,59.39
2023-04-25T16:49:27.962Z,59.95
2023-04-25T16:52:13.055Z,60.37
2023-04-25T16:54:55.864Z,60.56
2023-04-25T16:57:38.837Z,60.87
2023-04-25T17:00:22.115Z,60.68
2023-04-25T17:03:05.312Z,60.54
2023-04-25T17:05:51.465Z,60.87
2023-04-25T17:08:35.649Z,60.56
2023-04-25T17:11:19.755Z,60.70
2023-04-25T17:14:02.592Z,61.47
2023-04-25T17:16:45.500Z,61.34
2023-04-25T17:19:28.587Z,61.59
2023-04-25T17:22:11.547Z,61.47
2023-04-25T17:24:55.738Z,61.66
2023-04-25T17:27:39.059Z,61.79
2023-04-25T17:30:23.629Z,61.88
2023-04-25T17:33:08.126Z,61.44
2023-04-25T17:35:50.976Z,61.88
2023-04-25T17:38:34.165Z,62.28
2023-04-25T17:41:18.897Z,62.29
2023-04-25T17:44:01.532Z,63.24
2023-04-25T17:46:44.491Z,62.76
2023-04-25T17:49:27.553Z,62.29
2023-04-25T17:52:10.861Z,62.78
2023-04-25T17:54:53.857Z,62.55
2023-04-25T17:57:38.190Z,62.85
2023-04-25T18:00:21.260Z,63.03
2023-04-25T18:03:05.145Z,62.65
2023-04-25T18:05:48.195Z,62.21
2023-04-25T18:08:31.308Z,62.60
2023-04-25T18:11:14.166Z,62.43
2023-04-25T18:13:58.386Z,62.62
2023-04-25T18:16:42.577Z,62.94
2023-04-25T18:19:25.461Z,62.64
2023-04-25T18:22:08.311Z,62.64
2023-04-25T18:24:52.103Z,62.96
2023-04-25T18:27:35.051Z,63.22
2023-04-25T18:30:19.262Z,62.91
2023-04-25T18:33:02.170Z,63.28
2023-04-25T18:35:55.305Z,63.35
2023-04-25T18:38:40.827Z,63.35
2023-04-25T18:44:10.301Z,63.50
2023-04-25T18:46:54.486Z,63.71
2023-04-25T18:49:38.670Z,63.87
2023-04-25T18:52:22.512Z,64.09
2023-04-25T18:55:06.049Z,64.18
2023-04-25T18:57:49.342Z,64.07
2023-04-25T19:00:32.684Z,64.06
2023-04-25T19:03:17.172Z,64.29
2023-04-25T19:06:01.092Z,64.88
2023-04-25T19:08:43.958Z,64.52
2023-04-25T19:11:26.862Z,64.43
2023-04-25T19:14:09.712Z,64.66
2023-04-25T19:16:52.914Z,64.60
2023-04-25T19:19:37.210Z,64.59
2023-04-25T19:22:20.314Z,64.79
2023-04-25T19:25:10.359Z,64.68
2023-04-25T19:27:54.194Z,64.77
2023-04-25T19:30:37.130Z,64.85
2023-04-25T19:33:20.918Z,64.92
2023-04-25T19:36:05.475Z,65.41
2023-04-25T19:38:48.317Z,65.04
2023-04-25T19:41:33.277Z,65.25
2023-04-25T19:44:17.164Z,65.05
2023-04-25T19:47:00.549Z,65.11
2023-04-25T19:49:43.437Z,65.26
2023-04-25T19:52:28.156Z,65.57
2023-04-25T19:55:11.015Z,66.20
2023-04-25T19:57:53.822Z,65.61
2023-04-25T20:00:37.145Z,65.75
2023-04-25T20:03:20.014Z,65.54
2023-04-25T20:06:03.009Z,65.78
2023-04-25T20:08:47.613Z,65.72
2023-04-25T20:11:30.924Z,66.32
2023-04-25T20:14:14.003Z,65.74
2023-04-25T20:16:56.939Z,65.53
2023-04-25T20:19:40.240Z,65.90
2023-04-25T20:22:23.236Z,65.48
2023-04-25T20:25:09.895Z,65.34
2023-04-25T20:27:52.865Z,65.60
2023-04-25T20:30:36.400Z,65.53
2023-04-25T20:33:19.285Z,65.68
2023-04-25T20:36:02.167Z,65.77
2023-04-25T20:38:45.576Z,65.89
2023-04-25T20:41:30.914Z,65.65
2023-04-25T20:44:13.813Z,65.77
2023-04-25T20:46:56.694Z,65.76
2023-04-25T20:49:39.778Z,65.63
2023-04-25T20:52:22.849Z,65.91
2023-04-25T20:55:06.992Z,65.81
2023-04-25T20:57:52.259Z,66.07
2023-04-25T21:00:35.317Z,66.09
2023-04-25T21:03:18.522Z,66.21
2023-04-25T21:06:01.959Z,66.17
2023-04-25T21:08:45.113Z,65.93
2023-04-25T21:11:28.556Z,66.09
2023-04-25T21:14:12.951Z,66.03
2023-04-25T21:16:55.938Z,65.90
2023-04-25T21:19:38.841Z,65.98
2023-04-25T21:22:21.737Z,65.81
2023-04-25T21:25:06.236Z,65.83
2023-04-25T21:27:49.782Z,66.12
2023-04-25T21:30:34.072Z,65.99
2023-04-25T21:33:17.480Z,65.73
2023-04-25T21:36:01.213Z,65.78
2023-04-25T21:38:44.300Z,65.80
2023-04-25T21:41:27.304Z,66.01
2023-04-25T21:44:12.418Z,65.94
2023-04-25T21:46:57.219Z,65.99
2023-04-25T21:49:40.076Z,66.19
2023-04-25T21:52:23.165Z,65.89
2023-04-25T21:55:06.769Z,65.86
2023-04-25T21:57:49.643Z,65.94
2023-04-25T22:00:33.276Z,65.96
2023-04-25T22:03:20.292Z,65.87
2023-04-25T22:06:03.942Z,65.95
2023-04-25T22:08:46.803Z,65.95
2023-04-25T22:11:29.623Z,65.88
2023-04-25T22:14:12.814Z,66.13
2023-04-25T22:16:56.048Z,66.24
2023-04-25T22:19:40.280Z,66.09
2023-04-25T22:22:23.112Z,66.19
2023-04-25T22:25:07.401Z,66.26
2023-04-25T22:27:51.367Z,65.99
2023-04-25T22:30:35.032Z,65.98
2023-04-25T22:33:17.902Z,66.03
2023-04-25T22:36:02.195Z,66.02
2023-04-25T22:38:45.165Z,66.01
2023-04-25T22:41:28.002Z,66.11
2023-04-25T22:44:11.304Z,66.18
2023-04-25T22:46:54.561Z,66.27
2023-04-25T22:49:37.677Z,66.38
2023-04-25T22:52:21.858Z,66.40
2023-04-25T22:55:05.213Z,66.29
2023-04-25T22:57:48.479Z,66.33
2023-04-25T23:00:34.388Z,66.41
2023-04-25T23:03:17.426Z,66.27
2023-04-25T23:06:00.588Z,66.01
2023-04-25T23:08:44.762Z,65.76
2023-04-25T23:11:28.004Z,65.90
2023-04-25T23:14:10.966Z,66.12
2023-04-25T23:16:55.410Z,65.91
2023-04-25T23:19:39.102Z,65.86
2023-04-25T23:22:21.966Z,65.55
2023-04-25T23:25:07.752Z,65.53
2023-04-25T23:27:50.653Z,65.77
2023-04-25T23:30:33.461Z,66.09
2023-04-25T23:33:16.316Z,65.91
2023-04-25T23:35:59.162Z,65.85
2023-04-25T23:38:42.194Z,65.86
2023-04-25T23:41:26.304Z,66.01
2023-04-25T23:44:10.756Z,65.88
2023-04-25T23:46:53.562Z,66.10
2023-04-25T23:49:36.388Z,66.13
2023-04-25T23:52:19.268Z,65.86
2023-04-25T23:55:02.126Z,65.64
2023-04-25T23:57:46.385Z,65.81
